Fremont, North Carolina
Current Conditions -  °F | °C
As of 10:55 PM on Sunday 23 Nov 2014 (Local Time) from KGWW Reporting Station
Heavy Rain Heavy Rain  
Wind Chill: 64°   Ceiling: 1200
Heat Index: 64°   Visibility: 4mi
Dew Point: 63°   Wind: 14mph
Humidity: 97%   Direction: 140°SE
Pressure: 29.82"   Gusts: 20mph
Location:  35.55°N, 77.97°W
Report Text: KGWW 240355Z AUTO 14012G17KT 4SM +RA SCT006 OVC012 18/17 A2982 RMK AO2 T01770173
Loading
Personal Weather Stations






























Interactive Weather Map New forecast layout! Learn more

10-Day Weather Forecast

Advertisements
Track Severe Weather on mobile